sensor_id;sensor_type;location;lat;lon;timestamp;temperature;humidity
37356;DHT22;48747;50.250;18.848;2022-12-07T00:03:46;1.90;99.90
37356;DHT22;48747;50.250;18.848;2022-12-07T00:05:51;1.90;99.90
37356;DHT22;48747;50.250;18.848;2022-12-07T00:07:58;1.90;99.90
37356;DHT22;48747;50.250;18.848;2022-12-07T00:10:03;1.90;99.90
37356;DHT22;48747;50.250;18.848;2022-12-07T00:12:12;1.90;99.90
37356;DHT22;48747;50.250;18.848;2022-12-07T00:14:23;2.00;99.90
37356;DHT22;48747;50.250;18.848;2022-12-07T00:16:31;2.00;99.90
37356;DHT22;48747;50.250;18.848;2022-12-07T00:18:38;2.00;99.90
37356;DHT22;48747;50.250;18.848;2022-12-07T00:20:45;2.00;99.90
37356;DHT22;48747;50.250;18.848;2022-12-07T00:22:52;2.00;99.90
37356;DHT22;48747;50.250;18.848;2022-12-07T00:25:01;2.00;99.90
37356;DHT22;48747;50.250;18.848;2022-12-07T00:27:16;2.00;99.90
37356;DHT22;48747;50.250;18.848;2022-12-07T00:29:20;2.00;99.90
37356;DHT22;48747;50.250;18.848;2022-12-07T00:31:26;2.00;99.90
37356;DHT22;48747;50.250;18.848;2022-12-07T00:33:35;2.00;99.90
37356;DHT22;48747;50.250;18.848;2022-12-07T00:35:42;2.00;99.90
37356;DHT22;48747;50.250;18.848;2022-12-07T00:37:51;2.00;99.90
37356;DHT22;48747;50.250;18.848;2022-12-07T00:40:00;2.00;99.90
37356;DHT22;48747;50.250;18.848;2022-12-07T00:42:09;2.00;99.90
37356;DHT22;48747;50.250;18.848;2022-12-07T00:44:15;2.00;99.90
37356;DHT22;48747;50.250;18.848;2022-12-07T00:46:25;2.00;99.90
37356;DHT22;48747;50.250;18.848;2022-12-07T00:48:29;2.00;99.90
37356;DHT22;48747;50.250;18.848;2022-12-07T00:50:33;2.00;99.90
37356;DHT22;48747;50.250;18.848;2022-12-07T00:52:46;2.00;99.90
37356;DHT22;48747;50.250;18.848;2022-12-07T00:54:51;2.00;99.90
37356;DHT22;48747;50.250;18.848;2022-12-07T00:56:57;2.00;99.90
37356;DHT22;48747;50.250;18.848;2022-12-07T00:59:07;2.00;99.90
37356;DHT22;48747;50.250;18.848;2022-12-07T01:01:13;2.00;99.90
37356;DHT22;48747;50.250;18.848;2022-12-07T01:03:20;2.00;99.90
37356;DHT22;48747;50.250;18.848;2022-12-07T01:05:37;2.00;99.90
37356;DHT22;48747;50.250;18.848;2022-12-07T01:07:42;2.00;99.90
37356;DHT22;48747;50.250;18.848;2022-12-07T01:09:48;2.10;99.90
37356;DHT22;48747;50.250;18.848;2022-12-07T01:11:54;2.10;99.90
37356;DHT22;48747;50.250;18.848;2022-12-07T01:14:00;2.00;99.90
37356;DHT22;48747;50.250;18.848;2022-12-07T01:18:32;2.10;99.90
37356;DHT22;48747;50.250;18.848;2022-12-07T01:20:37;2.10;99.90
37356;DHT22;48747;50.250;18.848;2022-12-07T01:22:46;2.10;99.90
37356;DHT22;48747;50.250;18.848;2022-12-07T01:24:59;2.10;99.90
37356;DHT22;48747;50.250;18.848;2022-12-07T01:27:11;2.10;99.90
37356;DHT22;48747;50.250;18.848;2022-12-07T01:29:23;2.20;99.90
37356;DHT22;48747;50.250;18.848;2022-12-07T01:31:30;2.10;99.90
37356;DHT22;48747;50.250;18.848;2022-12-07T01:33:41;2.10;99.90
37356;DHT22;48747;50.250;18.848;2022-12-07T01:35:47;2.20;99.90
37356;DHT22;48747;50.250;18.848;2022-12-07T01:37:59;2.10;99.90
37356;DHT22;48747;50.250;18.848;2022-12-07T01:40:07;2.20;99.90
37356;DHT22;48747;50.250;18.848;2022-12-07T01:42:15;2.10;99.90
37356;DHT22;48747;50.250;18.848;2022-12-07T01:44:25;2.10;99.90
37356;DHT22;48747;50.250;18.848;2022-12-07T01:46:31;2.10;99.90
37356;DHT22;48747;50.250;18.848;2022-12-07T01:48:38;2.10;99.90
37356;DHT22;48747;50.250;18.848;2022-12-07T01:50:45;2.10;99.90
37356;DHT22;48747;50.250;18.848;2022-12-07T01:52:52;2.20;99.90
37356;DHT22;48747;50.250;18.848;2022-12-07T01:55:02;2.20;99.90
37356;DHT22;48747;50.250;18.848;2022-12-07T01:57:12;2.10;99.90
37356;DHT22;48747;50.250;18.848;2022-12-07T01:59:21;2.10;99.90
37356;DHT22;48747;50.250;18.848;2022-12-07T02:01:29;2.10;99.90
37356;DHT22;48747;50.250;18.848;2022-12-07T02:03:44;2.10;99.90
37356;DHT22;48747;50.250;18.848;2022-12-07T02:05:50;2.10;99.90
37356;DHT22;48747;50.250;18.848;2022-12-07T02:07:58;2.10;99.90
37356;DHT22;48747;50.250;18.848;2022-12-07T02:10:15;2.10;99.90
37356;DHT22;48747;50.250;18.848;2022-12-07T02:12:33;2.10;99.90
37356;DHT22;48747;50.250;18.848;2022-12-07T02:14:41;2.10;99.90
37356;DHT22;48747;50.250;18.848;2022-12-07T02:24:45;2.00;99.90
37356;DHT22;48747;50.250;18.848;2022-12-07T02:27:10;2.00;99.90
37356;DHT22;48747;50.250;18.848;2022-12-07T02:29:33;2.00;99.90
37356;DHT22;48747;50.250;18.848;2022-12-07T02:31:45;2.00;99.90
37356;DHT22;48747;50.250;18.848;2022-12-07T02:34:05;1.90;99.90
37356;DHT22;48747;50.250;18.848;2022-12-07T02:36:17;1.90;99.90
37356;DHT22;48747;50.250;18.848;2022-12-07T02:38:39;1.90;99.90
37356;DHT22;48747;50.250;18.848;2022-12-07T02:43:54;1.90;99.90
37356;DHT22;48747;50.250;18.848;2022-12-07T02:45:45;1.90;99.90
37356;DHT22;48747;50.250;18.848;2022-12-07T02:50:03;1.90;99.90
37356;DHT22;48747;50.250;18.848;2022-12-07T02:52:11;1.90;99.90
37356;DHT22;48747;50.250;18.848;2022-12-07T02:54:22;1.90;99.90
37356;DHT22;48747;50.250;18.848;2022-12-07T03:03:57;2.00;99.90
37356;DHT22;48747;50.250;18.848;2022-12-07T03:06:27;2.00;99.90
37356;DHT22;48747;50.250;18.848;2022-12-07T03:09:11;2.00;99.90
37356;DHT22;48747;50.250;18.848;2022-12-07T03:11:25;2.00;99.90
37356;DHT22;48747;50.250;18.848;2022-12-07T03:16:21;2.00;99.90
37356;DHT22;48747;50.250;18.848;2022-12-07T03:18:38;2.00;99.90
37356;DHT22;48747;50.250;18.848;2022-12-07T03:20:43;2.00;99.90
37356;DHT22;48747;50.250;18.848;2022-12-07T03:22:54;2.00;99.90
37356;DHT22;48747;50.250;18.848;2022-12-07T03:25:08;2.00;99.90
37356;DHT22;48747;50.250;18.848;2022-12-07T03:27:22;2.00;99.90
37356;DHT22;48747;50.250;18.848;2022-12-07T03:29:28;2.00;99.90
37356;DHT22;48747;50.250;18.848;2022-12-07T03:31:45;2.00;99.90
37356;DHT22;48747;50.250;18.848;2022-12-07T03:34:15;2.00;99.90
37356;DHT22;48747;50.250;18.848;2022-12-07T03:36:25;2.00;99.90
37356;DHT22;48747;50.250;18.848;2022-12-07T03:38:48;2.00;99.90
37356;DHT22;48747;50.250;18.848;2022-12-07T03:41:03;2.00;99.90
37356;DHT22;48747;50.250;18.848;2022-12-07T03:43:08;2.00;99.90
37356;DHT22;48747;50.250;18.848;2022-12-07T03:45:25;2.00;99.90
37356;DHT22;48747;50.250;18.848;2022-12-07T03:47:32;1.90;99.90
37356;DHT22;48747;50.250;18.848;2022-12-07T03:49:58;1.90;99.90
37356;DHT22;48747;50.250;18.848;2022-12-07T03:57:14;1.90;99.90
37356;DHT22;48747;50.250;18.848;2022-12-07T03:59:19;1.90;99.90
37356;DHT22;48747;50.250;18.848;2022-12-07T04:01:35;1.90;99.90
37356;DHT22;48747;50.250;18.848;2022-12-07T04:03:41;1.90;99.90
37356;DHT22;48747;50.250;18.848;2022-12-07T04:05:53;1.90;99.90
37356;DHT22;48747;50.250;18.848;2022-12-07T04:08:01;1.90;99.90
37356;DHT22;48747;50.250;18.848;2022-12-07T04:10:11;2.00;99.90
37356;DHT22;48747;50.250;18.848;2022-12-07T04:12:19;2.00;99.90
37356;DHT22;48747;50.250;18.848;2022-12-07T04:14:31;2.00;99.90
37356;DHT22;48747;50.250;18.848;2022-12-07T04:16:41;1.90;99.90
37356;DHT22;48747;50.250;18.848;2022-12-07T04:18:56;1.90;99.90
37356;DHT22;48747;50.250;18.848;2022-12-07T04:21:16;1.90;99.90
37356;DHT22;48747;50.250;18.848;2022-12-07T04:23:23;1.90;99.90
37356;DHT22;48747;50.250;18.848;2022-12-07T04:25:47;1.90;99.90
37356;DHT22;48747;50.250;18.848;2022-12-07T04:28:02;1.90;99.90
37356;DHT22;48747;50.250;18.848;2022-12-07T04:30:23;1.90;99.90
37356;DHT22;48747;50.250;18.848;2022-12-07T04:32:26;1.90;99.90
37356;DHT22;48747;50.250;18.848;2022-12-07T04:34:34;1.90;99.90
37356;DHT22;48747;50.250;18.848;2022-12-07T04:36:43;1.90;99.90
37356;DHT22;48747;50.250;18.848;2022-12-07T04:38:53;1.90;99.90
37356;DHT22;48747;50.250;18.848;2022-12-07T04:40:59;1.90;99.90
37356;DHT22;48747;50.250;18.848;2022-12-07T04:43:07;1.90;99.90
37356;DHT22;48747;50.250;18.848;2022-12-07T04:45:19;1.90;99.90
37356;DHT22;48747;50.250;18.848;2022-12-07T04:47:24;1.90;99.90
37356;DHT22;48747;50.250;18.848;2022-12-07T04:49:38;1.80;99.90
37356;DHT22;48747;50.250;18.848;2022-12-07T04:51:49;1.90;99.90
37356;DHT22;48747;50.250;18.848;2022-12-07T04:56:03;1.80;99.90
37356;DHT22;48747;50.250;18.848;2022-12-07T04:58:12;1.80;99.90
37356;DHT22;48747;50.250;18.848;2022-12-07T05:00:18;1.80;99.90
37356;DHT22;48747;50.250;18.848;2022-12-07T05:02:24;1.80;99.90
37356;DHT22;48747;50.250;18.848;2022-12-07T05:04:34;1.80;99.90
37356;DHT22;48747;50.250;18.848;2022-12-07T05:06:39;1.80;99.90
37356;DHT22;48747;50.250;18.848;2022-12-07T05:10:54;1.80;99.90
37356;DHT22;48747;50.250;18.848;2022-12-07T05:13:00;1.80;99.90
37356;DHT22;48747;50.250;18.848;2022-12-07T05:15:07;1.80;99.90
37356;DHT22;48747;50.250;18.848;2022-12-07T05:17:12;1.80;99.90
37356;DHT22;48747;50.250;18.848;2022-12-07T05:19:20;1.70;99.90
37356;DHT22;48747;50.250;18.848;2022-12-07T05:21:31;1.70;99.90
37356;DHT22;48747;50.250;18.848;2022-12-07T05:23:35;1.70;99.90
37356;DHT22;48747;50.250;18.848;2022-12-07T05:25:59;1.70;99.90
37356;DHT22;48747;50.250;18.848;2022-12-07T05:28:02;1.70;99.90
37356;DHT22;48747;50.250;18.848;2022-12-07T05:30:12;1.70;99.90
37356;DHT22;48747;50.250;18.848;2022-12-07T05:32:18;1.70;99.90
37356;DHT22;48747;50.250;18.848;2022-12-07T05:34:29;1.70;99.90
37356;DHT22;48747;50.250;18.848;2022-12-07T05:36:39;1.70;99.90
37356;DHT22;48747;50.250;18.848;2022-12-07T05:38:51;1.70;99.90
37356;DHT22;48747;50.250;18.848;2022-12-07T05:40:55;1.70;99.90
37356;DHT22;48747;50.250;18.848;2022-12-07T05:43:04;1.70;99.90
37356;DHT22;48747;50.250;18.848;2022-12-07T05:45:13;1.70;99.90
37356;DHT22;48747;50.250;18.848;2022-12-07T05:47:18;1.70;99.90
37356;DHT22;48747;50.250;18.848;2022-12-07T05:49:30;1.80;99.90
37356;DHT22;48747;50.250;18.848;2022-12-07T05:51:35;1.70;99.90
37356;DHT22;48747;50.250;18.848;2022-12-07T05:53:41;1.70;99.90
37356;DHT22;48747;50.250;18.848;2022-12-07T05:55:55;1.70;99.90
37356;DHT22;48747;50.250;18.848;2022-12-07T05:58:01;1.70;99.90
37356;DHT22;48747;50.250;18.848;2022-12-07T06:00:23;1.70;99.90
37356;DHT22;48747;50.250;18.848;2022-12-07T06:02:26;1.70;99.90
37356;DHT22;48747;50.250;18.848;2022-12-07T06:04:39;1.70;99.90
37356;DHT22;48747;50.250;18.848;2022-12-07T06:06:46;1.70;99.90
37356;DHT22;48747;50.250;18.848;2022-12-07T06:08:52;1.70;99.90
37356;DHT22;48747;50.250;18.848;2022-12-07T06:10:57;1.70;99.90
37356;DHT22;48747;50.250;18.848;2022-12-07T06:13:20;1.70;99.90
37356;DHT22;48747;50.250;18.848;2022-12-07T06:15:28;1.70;99.90
37356;DHT22;48747;50.250;18.848;2022-12-07T06:17:45;1.70;99.90
37356;DHT22;48747;50.250;18.848;2022-12-07T06:19:54;1.60;99.90
37356;DHT22;48747;50.250;18.848;2022-12-07T06:22:01;1.70;99.90
37356;DHT22;48747;50.250;18.848;2022-12-07T06:24:15;1.70;99.90
37356;DHT22;48747;50.250;18.848;2022-12-07T06:26:32;1.70;99.90
37356;DHT22;48747;50.250;18.848;2022-12-07T06:28:35;1.70;99.90
37356;DHT22;48747;50.250;18.848;2022-12-07T06:30:48;1.70;99.90
37356;DHT22;48747;50.250;18.848;2022-12-07T06:32:57;1.70;99.90
37356;DHT22;48747;50.250;18.848;2022-12-07T06:35:13;1.70;99.90
37356;DHT22;48747;50.250;18.848;2022-12-07T06:37:13;1.70;99.90
37356;DHT22;48747;50.250;18.848;2022-12-07T06:39:19;1.60;99.90
37356;DHT22;48747;50.250;18.848;2022-12-07T06:41:24;1.60;99.90
37356;DHT22;48747;50.250;18.848;2022-12-07T06:43:30;1.60;99.90
37356;DHT22;48747;50.250;18.848;2022-12-07T06:45:40;1.60;99.90
37356;DHT22;48747;50.250;18.848;2022-12-07T06:47:51;1.60;99.90
37356;DHT22;48747;50.250;18.848;2022-12-07T06:49:55;1.60;99.90
37356;DHT22;48747;50.250;18.848;2022-12-07T06:52:02;1.60;99.90
37356;DHT22;48747;50.250;18.848;2022-12-07T06:54:13;1.70;99.90
37356;DHT22;48747;50.250;18.848;2022-12-07T06:56:24;1.60;99.90
37356;DHT22;48747;50.250;18.848;2022-12-07T06:58:33;1.60;99.90
37356;DHT22;48747;50.250;18.848;2022-12-07T07:00:51;1.70;99.90
37356;DHT22;48747;50.250;18.848;2022-12-07T07:03:04;1.60;99.90
37356;DHT22;48747;50.250;18.848;2022-12-07T07:05:14;1.60;99.90
37356;DHT22;48747;50.250;18.848;2022-12-07T07:13:18;1.70;99.90
37356;DHT22;48747;50.250;18.848;2022-12-07T07:15:41;1.70;99.90
37356;DHT22;48747;50.250;18.848;2022-12-07T07:18:00;1.70;99.90
37356;DHT22;48747;50.250;18.848;2022-12-07T07:20:15;1.70;99.90
37356;DHT22;48747;50.250;18.848;2022-12-07T07:22:38;1.70;99.90
37356;DHT22;48747;50.250;18.848;2022-12-07T07:24:52;1.70;99.90
37356;DHT22;48747;50.250;18.848;2022-12-07T07:30:19;1.80;99.90
37356;DHT22;48747;50.250;18.848;2022-12-07T07:32:26;1.80;99.90
37356;DHT22;48747;50.250;18.848;2022-12-07T07:34:33;1.80;99.90
37356;DHT22;48747;50.250;18.848;2022-12-07T07:36:43;1.80;99.90
37356;DHT22;48747;50.250;18.848;2022-12-07T07:38:50;1.80;99.90
37356;DHT22;48747;50.250;18.848;2022-12-07T07:41:03;1.80;99.90
37356;DHT22;48747;50.250;18.848;2022-12-07T07:46:21;1.90;99.90
37356;DHT22;48747;50.250;18.848;2022-12-07T07:53:39;2.00;99.90
37356;DHT22;48747;50.250;18.848;2022-12-07T08:05:03;2.20;99.90
37356;DHT22;48747;50.250;18.848;2022-12-07T08:07:36;2.30;99.90
37356;DHT22;48747;50.250;18.848;2022-12-07T09:00:14;2.50;99.90
37356;DHT22;48747;50.250;18.848;2022-12-07T09:05:42;2.50;99.90
37356;DHT22;48747;50.250;18.848;2022-12-07T09:10:35;2.50;99.90
37356;DHT22;48747;50.250;18.848;2022-12-07T09:12:44;2.60;99.90
37356;DHT22;48747;50.250;18.848;2022-12-07T09:15:28;2.50;99.90
37356;DHT22;48747;50.250;18.848;2022-12-07T09:17:39;2.60;99.90
37356;DHT22;48747;50.250;18.848;2022-12-07T09:20:14;2.60;99.90
37356;DHT22;48747;50.250;18.848;2022-12-07T09:22:38;2.60;99.90
37356;DHT22;48747;50.250;18.848;2022-12-07T10:26:26;3.70;99.90
37356;DHT22;48747;50.250;18.848;2022-12-07T10:28:33;3.80;99.90
37356;DHT22;48747;50.250;18.848;2022-12-07T10:36:20;4.20;99.90
37356;DHT22;48747;50.250;18.848;2022-12-07T10:38:26;4.40;99.90
37356;DHT22;48747;50.250;18.848;2022-12-07T10:41:08;4.40;99.90
37356;DHT22;48747;50.250;18.848;2022-12-07T10:45:34;4.40;99.90
37356;DHT22;48747;50.250;18.848;2022-12-07T10:48:06;4.30;99.90
37356;DHT22;48747;50.250;18.848;2022-12-07T11:19:28;3.70;99.90
37356;DHT22;48747;50.250;18.848;2022-12-07T11:21:51;3.70;99.90
37356;DHT22;48747;50.250;18.848;2022-12-07T11:34:25;3.60;99.90
37356;DHT22;48747;50.250;18.848;2022-12-07T11:39:39;3.60;99.90
37356;DHT22;48747;50.250;18.848;2022-12-07T11:41:44;3.60;99.90
37356;DHT22;48747;50.250;18.848;2022-12-07T11:43:54;3.70;99.90
37356;DHT22;48747;50.250;18.848;2022-12-07T11:46:09;3.70;99.90
37356;DHT22;48747;50.250;18.848;2022-12-07T11:58:14;3.90;99.90
37356;DHT22;48747;50.250;18.848;2022-12-07T12:00:28;3.90;99.90
37356;DHT22;48747;50.250;18.848;2022-12-07T12:02:44;3.90;99.90
37356;DHT22;48747;50.250;18.848;2022-12-07T12:05:12;3.90;99.90
37356;DHT22;48747;50.250;18.848;2022-12-07T12:07:37;4.00;99.90
37356;DHT22;48747;50.250;18.848;2022-12-07T12:09:54;4.10;99.90
37356;DHT22;48747;50.250;18.848;2022-12-07T12:19:35;4.50;99.90
37356;DHT22;48747;50.250;18.848;2022-12-07T12:21:42;4.50;99.90
37356;DHT22;48747;50.250;18.848;2022-12-07T12:26:21;4.40;99.90
37356;DHT22;48747;50.250;18.848;2022-12-07T12:33:37;4.20;99.90
37356;DHT22;48747;50.250;18.848;2022-12-07T12:35:42;4.20;99.90
37356;DHT22;48747;50.250;18.848;2022-12-07T12:42:43;4.00;99.90
37356;DHT22;48747;50.250;18.848;2022-12-07T12:44:39;3.90;99.90
37356;DHT22;48747;50.250;18.848;2022-12-07T12:49:54;4.00;99.90
37356;DHT22;48747;50.250;18.848;2022-12-07T12:54:37;4.10;99.90
37356;DHT22;48747;50.250;18.848;2022-12-07T12:59:44;4.00;99.90
37356;DHT22;48747;50.250;18.848;2022-12-07T13:02:35;4.00;99.90
37356;DHT22;48747;50.250;18.848;2022-12-07T13:04:16;4.00;99.90
37356;DHT22;48747;50.250;18.848;2022-12-07T13:08:37;4.00;99.90
37356;DHT22;48747;50.250;18.848;2022-12-07T13:10:43;4.00;99.90
37356;DHT22;48747;50.250;18.848;2022-12-07T13:13:03;3.90;99.90
37356;DHT22;48747;50.250;18.848;2022-12-07T13:15:22;3.90;99.90
37356;DHT22;48747;50.250;18.848;2022-12-07T13:20:08;3.80;99.90
37356;DHT22;48747;50.250;18.848;2022-12-07T13:22:27;3.80;99.90
37356;DHT22;48747;50.250;18.848;2022-12-07T13:33:29;3.80;99.90
37356;DHT22;48747;50.250;18.848;2022-12-07T13:35:46;3.80;99.90
37356;DHT22;48747;50.250;18.848;2022-12-07T13:38:13;3.90;99.90
37356;DHT22;48747;50.250;18.848;2022-12-07T13:40:21;3.90;99.90
37356;DHT22;48747;50.250;18.848;2022-12-07T13:44:41;3.90;99.90
37356;DHT22;48747;50.250;18.848;2022-12-07T13:58:07;3.70;99.90
37356;DHT22;48747;50.250;18.848;2022-12-07T14:00:26;3.60;99.90
37356;DHT22;48747;50.250;18.848;2022-12-07T14:15:02;3.50;99.90
37356;DHT22;48747;50.250;18.848;2022-12-07T14:17:23;3.50;99.90
37356;DHT22;48747;50.250;18.848;2022-12-07T14:22:20;3.40;99.90
37356;DHT22;48747;50.250;18.848;2022-12-07T14:35:47;3.30;99.90
37356;DHT22;48747;50.250;18.848;2022-12-07T14:37:51;3.40;99.90
37356;DHT22;48747;50.250;18.848;2022-12-07T14:40:04;3.40;99.90
37356;DHT22;48747;50.250;18.848;2022-12-07T14:42:04;3.30;99.90
37356;DHT22;48747;50.250;18.848;2022-12-07T14:44:28;3.30;99.90
37356;DHT22;48747;50.250;18.848;2022-12-07T14:46:24;3.30;99.90
37356;DHT22;48747;50.250;18.848;2022-12-07T14:48:27;3.30;99.90
37356;DHT22;48747;50.250;18.848;2022-12-07T14:50:35;3.30;99.90
37356;DHT22;48747;50.250;18.848;2022-12-07T14:52:39;3.40;99.90
37356;DHT22;48747;50.250;18.848;2022-12-07T14:54:48;3.30;99.90
37356;DHT22;48747;50.250;18.848;2022-12-07T14:56:51;3.30;99.90
37356;DHT22;48747;50.250;18.848;2022-12-07T15:01:40;3.30;99.90
37356;DHT22;48747;50.250;18.848;2022-12-07T15:08:13;3.30;99.90
37356;DHT22;48747;50.250;18.848;2022-12-07T15:10:18;3.20;99.90
37356;DHT22;48747;50.250;18.848;2022-12-07T15:12:21;3.20;99.90
37356;DHT22;48747;50.250;18.848;2022-12-07T15:14:27;3.20;99.90
37356;DHT22;48747;50.250;18.848;2022-12-07T15:16:39;3.20;99.90
37356;DHT22;48747;50.250;18.848;2022-12-07T15:18:51;3.10;99.90
37356;DHT22;48747;50.250;18.848;2022-12-07T15:20:52;3.10;99.90
37356;DHT22;48747;50.250;18.848;2022-12-07T15:28:21;3.10;99.90
37356;DHT22;48747;50.250;18.848;2022-12-07T15:30:44;3.10;99.90
37356;DHT22;48747;50.250;18.848;2022-12-07T15:33:04;3.10;99.90
37356;DHT22;48747;50.250;18.848;2022-12-07T15:35:01;3.00;99.90
37356;DHT22;48747;50.250;18.848;2022-12-07T15:37:05;3.10;99.90
37356;DHT22;48747;50.250;18.848;2022-12-07T15:41:34;3.10;99.90
37356;DHT22;48747;50.250;18.848;2022-12-07T15:43:48;3.00;99.90
37356;DHT22;48747;50.250;18.848;2022-12-07T15:46:05;3.00;99.90
37356;DHT22;48747;50.250;18.848;2022-12-07T15:50:20;3.00;99.90
37356;DHT22;48747;50.250;18.848;2022-12-07T15:52:34;3.00;99.90
37356;DHT22;48747;50.250;18.848;2022-12-07T15:54:39;3.00;99.90
37356;DHT22;48747;50.250;18.848;2022-12-07T16:04:03;2.80;99.90
37356;DHT22;48747;50.250;18.848;2022-12-07T16:06:23;2.70;99.90
37356;DHT22;48747;50.250;18.848;2022-12-07T16:15:26;2.70;99.90
37356;DHT22;48747;50.250;18.848;2022-12-07T16:17:46;2.60;99.90
37356;DHT22;48747;50.250;18.848;2022-12-07T16:24:00;2.50;99.90
37356;DHT22;48747;50.250;18.848;2022-12-07T16:26:16;2.50;99.90
37356;DHT22;48747;50.250;18.848;2022-12-07T16:28:26;2.50;99.90
37356;DHT22;48747;50.250;18.848;2022-12-07T16:30:30;2.40;99.90
37356;DHT22;48747;50.250;18.848;2022-12-07T16:32:45;2.50;99.90
37356;DHT22;48747;50.250;18.848;2022-12-07T16:37:34;2.40;99.90
37356;DHT22;48747;50.250;18.848;2022-12-07T16:39:44;2.40;99.90
37356;DHT22;48747;50.250;18.848;2022-12-07T16:41:57;2.40;99.90
37356;DHT22;48747;50.250;18.848;2022-12-07T16:44:05;2.50;99.90
37356;DHT22;48747;50.250;18.848;2022-12-07T16:46:07;2.50;99.90
37356;DHT22;48747;50.250;18.848;2022-12-07T16:48:15;2.50;99.90
37356;DHT22;48747;50.250;18.848;2022-12-07T16:50:20;2.60;99.90
37356;DHT22;48747;50.250;18.848;2022-12-07T16:52:27;2.60;99.90
37356;DHT22;48747;50.250;18.848;2022-12-07T16:54:36;2.60;99.90
37356;DHT22;48747;50.250;18.848;2022-12-07T16:56:39;2.60;99.90
37356;DHT22;48747;50.250;18.848;2022-12-07T16:58:44;2.60;99.90
37356;DHT22;48747;50.250;18.848;2022-12-07T17:00:49;2.60;99.90
37356;DHT22;48747;50.250;18.848;2022-12-07T17:02:54;2.70;99.90
37356;DHT22;48747;50.250;18.848;2022-12-07T17:04:57;2.70;99.90
37356;DHT22;48747;50.250;18.848;2022-12-07T17:07:08;2.70;99.90
37356;DHT22;48747;50.250;18.848;2022-12-07T17:09:10;2.70;99.90
37356;DHT22;48747;50.250;18.848;2022-12-07T17:11:25;2.70;99.90
37356;DHT22;48747;50.250;18.848;2022-12-07T17:13:29;2.70;99.90
37356;DHT22;48747;50.250;18.848;2022-12-07T17:16:04;2.60;99.90
37356;DHT22;48747;50.250;18.848;2022-12-07T17:18:05;2.60;99.90
37356;DHT22;48747;50.250;18.848;2022-12-07T17:20:09;2.60;99.90
37356;DHT22;48747;50.250;18.848;2022-12-07T17:24:42;2.70;99.90
37356;DHT22;48747;50.250;18.848;2022-12-07T17:26:41;2.70;99.90
37356;DHT22;48747;50.250;18.848;2022-12-07T18:07:30;2.70;99.90
37356;DHT22;48747;50.250;18.848;2022-12-07T18:25:06;2.70;99.90
37356;DHT22;48747;50.250;18.848;2022-12-07T18:38:20;2.70;99.90
37356;DHT22;48747;50.250;18.848;2022-12-07T18:40:28;2.70;99.90
37356;DHT22;48747;50.250;18.848;2022-12-07T19:14:01;2.80;99.90
37356;DHT22;48747;50.250;18.848;2022-12-07T19:16:10;2.80;99.90
37356;DHT22;48747;50.250;18.848;2022-12-07T19:20:54;2.80;99.90
37356;DHT22;48747;50.250;18.848;2022-12-07T19:36:08;2.80;99.90
37356;DHT22;48747;50.250;18.848;2022-12-07T19:38:17;2.80;99.90
37356;DHT22;48747;50.250;18.848;2022-12-07T19:40:23;2.80;99.90
37356;DHT22;48747;50.250;18.848;2022-12-07T19:42:28;2.80;99.90
37356;DHT22;48747;50.250;18.848;2022-12-07T19:44:34;2.80;99.90
37356;DHT22;48747;50.250;18.848;2022-12-07T19:46:48;2.80;99.90
37356;DHT22;48747;50.250;18.848;2022-12-07T19:48:53;2.80;99.90
37356;DHT22;48747;50.250;18.848;2022-12-07T19:50:55;2.70;99.90
37356;DHT22;48747;50.250;18.848;2022-12-07T19:59:11;2.60;99.90
37356;DHT22;48747;50.250;18.848;2022-12-07T20:01:07;2.60;99.90
37356;DHT22;48747;50.250;18.848;2022-12-07T20:03:10;2.50;99.90
37356;DHT22;48747;50.250;18.848;2022-12-07T20:05:19;2.60;99.90
37356;DHT22;48747;50.250;18.848;2022-12-07T20:20:48;2.30;99.90
37356;DHT22;48747;50.250;18.848;2022-12-07T20:56:45;2.30;99.90
37356;DHT22;48747;50.250;18.848;2022-12-07T20:59:02;2.30;99.90
